sensor_id;sensor_type;location;lat;lon;timestamp;pressure;altitude;pressure_sealevel;temperature;humidity
28354;BME280;15603;50.878;8.036;2022-10-16T00:01:22;146443.94;;;13.44;100.00
28354;BME280;15603;50.878;8.036;2022-10-16T00:03:50;146443.94;;;13.44;100.00
28354;BME280;15603;50.878;8.036;2022-10-16T00:06:20;146443.94;;;13.44;100.00
28354;BME280;15603;50.878;8.036;2022-10-16T00:08:48;146424.47;;;13.36;100.00
28354;BME280;15603;50.878;8.036;2022-10-16T00:11:21;146422.00;;;13.35;100.00
28354;BME280;15603;50.878;8.036;2022-10-16T00:13:51;146423.22;;;13.35;100.00
28354;BME280;15603;50.878;8.036;2022-10-16T00:16:19;146431.75;;;13.39;100.00
28354;BME280;15603;50.878;8.036;2022-10-16T00:18:46;146363.50;;;13.10;100.00
28354;BME280;15603;50.878;8.036;2022-10-16T00:21:17;146430.53;;;13.39;100.00
28354;BME280;15603;50.878;8.036;2022-10-16T00:23:45;146429.34;;;13.38;100.00
28354;BME280;15603;50.878;8.036;2022-10-16T00:26:14;146417.13;;;13.33;100.00
28354;BME280;15603;50.878;8.036;2022-10-16T00:28:42;146420.81;;;13.34;100.00
28354;BME280;15603;50.878;8.036;2022-10-16T00:31:10;146376.91;;;13.16;100.00
28354;BME280;15603;50.878;8.036;2022-10-16T00:33:39;146409.88;;;13.30;100.00
28354;BME280;15603;50.878;8.036;2022-10-16T00:36:08;146407.34;;;13.29;100.00
28354;BME280;15603;50.878;8.036;2022-10-16T00:38:36;146406.16;;;13.28;100.00
28354;BME280;15603;50.878;8.036;2022-10-16T00:41:06;146400.03;;;13.26;100.00
28354;BME280;15603;50.878;8.036;2022-10-16T00:43:43;146376.91;;;13.16;100.00
28354;BME280;15603;50.878;8.036;2022-10-16T00:46:34;146386.63;;;13.20;100.00
28354;BME280;15603;50.878;8.036;2022-10-16T00:49:20;146275.84;;;12.73;100.00
28354;BME280;15603;50.878;8.036;2022-10-16T00:51:50;146375.69;;;13.15;100.00
28354;BME280;15603;50.878;8.036;2022-10-16T00:54:22;146370.84;;;13.13;100.00
28354;BME280;15603;50.878;8.036;2022-10-16T00:56:50;146380.56;;;13.18;100.00
28354;BME280;15603;50.878;8.036;2022-10-16T00:59:21;146370.84;;;13.13;100.00
28354;BME280;15603;50.878;8.036;2022-10-16T01:01:49;146342.84;;;13.02;100.00
28354;BME280;15603;50.878;8.036;2022-10-16T01:04:17;146333.09;;;12.98;100.00
28354;BME280;15603;50.878;8.036;2022-10-16T01:06:58;146344.03;;;13.02;100.00
28354;BME280;15603;50.878;8.036;2022-10-16T01:20:40;146301.44;;;12.84;100.00
28354;BME280;15603;50.878;8.036;2022-10-16T01:23:21;146290.47;;;12.80;100.00
28354;BME280;15603;50.878;8.036;2022-10-16T01:31:24;146344.03;;;13.02;100.00
28354;BME280;15603;50.878;8.036;2022-10-16T01:34:21;146344.03;;;13.02;100.00
28354;BME280;15603;50.878;8.036;2022-10-16T01:36:52;146359.88;;;13.09;100.00
28354;BME280;15603;50.878;8.036;2022-10-16T01:39:24;146280.72;;;12.75;100.00
28354;BME280;15603;50.878;8.036;2022-10-16T01:42:01;146286.84;;;12.78;100.00
28354;BME280;15603;50.878;8.036;2022-10-16T01:44:32;146373.28;;;13.14;100.00
28354;BME280;15603;50.878;8.036;2022-10-16T01:47:00;146365.97;;;13.11;100.00
28354;BME280;15603;50.878;8.036;2022-10-16T01:49:31;146353.78;;;13.06;100.00
28354;BME280;15603;50.878;8.036;2022-10-16T01:52:04;146336.75;;;12.99;100.00
28354;BME280;15603;50.878;8.036;2022-10-16T01:54:35;146336.75;;;12.99;100.00
28354;BME280;15603;50.878;8.036;2022-10-16T01:57:06;146335.50;;;12.99;100.00
28354;BME280;15603;50.878;8.036;2022-10-16T01:59:44;146348.91;;;13.04;100.00
28354;BME280;15603;50.878;8.036;2022-10-16T02:02:14;146340.38;;;13.01;100.00
28354;BME280;15603;50.878;8.036;2022-10-16T02:04:47;146341.63;;;13.01;100.00
28354;BME280;15603;50.878;8.036;2022-10-16T02:07:16;146337.97;;;13.00;100.00
28354;BME280;15603;50.878;8.036;2022-10-16T02:09:43;146324.56;;;12.94;100.00
28354;BME280;15603;50.878;8.036;2022-10-16T02:12:22;146311.19;;;12.88;100.00
28354;BME280;15603;50.878;8.036;2022-10-16T02:14:52;146290.47;;;12.80;100.00
28354;BME280;15603;50.878;8.036;2022-10-16T02:17:20;146280.72;;;12.75;100.00
28354;BME280;15603;50.878;8.036;2022-10-16T02:19:49;146244.22;;;12.60;100.00
28354;BME280;15603;50.878;8.036;2022-10-16T02:22:36;146244.22;;;12.60;100.00
28354;BME280;15603;50.878;8.036;2022-10-16T02:27:43;146205.28;;;12.44;100.00
28354;BME280;15603;50.878;8.036;2022-10-16T02:30:22;146205.28;;;12.44;100.00
28354;BME280;15603;50.878;8.036;2022-10-16T02:32:52;146195.56;;;12.40;100.00
28354;BME280;15603;50.878;8.036;2022-10-16T02:35:22;146189.44;;;12.37;100.00
28354;BME280;15603;50.878;8.036;2022-10-16T02:37:50;146168.78;;;12.28;100.00
28354;BME280;15603;50.878;8.036;2022-10-16T02:40:18;146179.72;;;12.33;100.00
28354;BME280;15603;50.878;8.036;2022-10-16T02:42:53;146166.31;;;12.27;100.00
28354;BME280;15603;50.878;8.036;2022-10-16T02:45:21;146161.47;;;12.25;100.00
28354;BME280;15603;50.878;8.036;2022-10-16T02:47:49;146086.06;;;11.93;100.00
28354;BME280;15603;50.878;8.036;2022-10-16T02:50:16;146188.25;;;12.36;100.00
28354;BME280;15603;50.878;8.036;2022-10-16T02:52:43;146200.44;;;12.42;100.00
28354;BME280;15603;50.878;8.036;2022-10-16T02:55:10;146207.69;;;12.45;100.00
28354;BME280;15603;50.878;8.036;2022-10-16T02:57:37;146200.44;;;12.42;100.00
28354;BME280;15603;50.878;8.036;2022-10-16T03:00:09;146206.50;;;12.44;100.00
28354;BME280;15603;50.878;8.036;2022-10-16T03:02:36;146196.75;;;12.40;100.00
28354;BME280;15603;50.878;8.036;2022-10-16T03:05:04;146165.13;;;12.27;100.00
28354;BME280;15603;50.878;8.036;2022-10-16T03:07:31;146139.56;;;12.16;100.00
28354;BME280;15603;50.878;8.036;2022-10-16T03:09:58;146163.91;;;12.26;100.00
28354;BME280;15603;50.878;8.036;2022-10-16T03:12:27;146049.50;;;11.78;100.00
28354;BME280;15603;50.878;8.036;2022-10-16T03:14:55;146159.06;;;12.24;100.00
28354;BME280;15603;50.878;8.036;2022-10-16T03:17:24;146156.59;;;12.23;100.00
28354;BME280;15603;50.878;8.036;2022-10-16T03:19:51;146156.59;;;12.23;100.00
28354;BME280;15603;50.878;8.036;2022-10-16T03:22:19;146155.41;;;12.23;100.00
28354;BME280;15603;50.878;8.036;2022-10-16T03:24:46;146162.66;;;12.26;100.00
28354;BME280;15603;50.878;8.036;2022-10-16T03:27:13;146161.47;;;12.25;100.00
28354;BME280;15603;50.878;8.036;2022-10-16T03:29:40;146166.31;;;12.27;100.00
28354;BME280;15603;50.878;8.036;2022-10-16T03:32:07;146144.41;;;12.18;100.00
28354;BME280;15603;50.878;8.036;2022-10-16T03:34:34;146165.13;;;12.27;100.00
28354;BME280;15603;50.878;8.036;2022-10-16T03:37:01;146122.56;;;12.09;100.00
28354;BME280;15603;50.878;8.036;2022-10-16T03:39:28;146190.69;;;12.37;100.00
28354;BME280;15603;50.878;8.036;2022-10-16T03:41:55;146183.38;;;12.34;100.00
28354;BME280;15603;50.878;8.036;2022-10-16T03:44:22;146168.78;;;12.28;100.00
28354;BME280;15603;50.878;8.036;2022-10-16T03:46:49;146166.31;;;12.27;100.00
28354;BME280;15603;50.878;8.036;2022-10-16T03:49:16;146193.09;;;12.38;100.00
28354;BME280;15603;50.878;8.036;2022-10-16T03:51:43;146183.38;;;12.34;100.00
28354;BME280;15603;50.878;8.036;2022-10-16T03:54:11;146093.31;;;11.96;100.00
28354;BME280;15603;50.878;8.036;2022-10-16T03:56:38;146200.44;;;12.42;100.00
28354;BME280;15603;50.878;8.036;2022-10-16T03:59:05;146146.88;;;12.19;100.00
28354;BME280;15603;50.878;8.036;2022-10-16T04:01:32;146154.19;;;12.22;100.00
28354;BME280;15603;50.878;8.036;2022-10-16T04:03:59;146195.56;;;12.40;100.00
28354;BME280;15603;50.878;8.036;2022-10-16T04:06:26;146197.97;;;12.41;100.00
28354;BME280;15603;50.878;8.036;2022-10-16T04:08:53;146188.25;;;12.36;100.00
28354;BME280;15603;50.878;8.036;2022-10-16T04:11:20;146197.97;;;12.41;100.00
28354;BME280;15603;50.878;8.036;2022-10-16T04:13:47;146193.09;;;12.38;100.00
28354;BME280;15603;50.878;8.036;2022-10-16T04:16:14;146180.91;;;12.33;100.00
28354;BME280;15603;50.878;8.036;2022-10-16T04:18:41;146183.38;;;12.34;100.00
28354;BME280;15603;50.878;8.036;2022-10-16T04:21:08;146187.03;;;12.36;100.00
28354;BME280;15603;50.878;8.036;2022-10-16T04:23:35;146163.91;;;12.26;100.00
28354;BME280;15603;50.878;8.036;2022-10-16T04:26:03;146163.91;;;12.26;100.00
28354;BME280;15603;50.878;8.036;2022-10-16T04:28:30;146180.91;;;12.33;100.00
28354;BME280;15603;50.878;8.036;2022-10-16T04:30:57;146195.56;;;12.40;100.00
28354;BME280;15603;50.878;8.036;2022-10-16T04:33:24;146149.28;;;12.20;100.00
28354;BME280;15603;50.878;8.036;2022-10-16T04:35:58;146223.53;;;12.51;100.00
28354;BME280;15603;50.878;8.036;2022-10-16T04:38:26;146188.25;;;12.36;100.00
28354;BME280;15603;50.878;8.036;2022-10-16T04:40:53;146256.41;;;12.65;100.00
28354;BME280;15603;50.878;8.036;2022-10-16T04:43:21;146271.00;;;12.71;100.00
28354;BME280;15603;50.878;8.036;2022-10-16T04:45:48;146285.59;;;12.77;100.00
28354;BME280;15603;50.878;8.036;2022-10-16T04:48:18;146227.22;;;12.53;100.00
28354;BME280;15603;50.878;8.036;2022-10-16T04:50:45;146302.66;;;12.85;100.00
28354;BME280;15603;50.878;8.036;2022-10-16T04:53:17;146311.19;;;12.88;100.00
28354;BME280;15603;50.878;8.036;2022-10-16T04:55:44;146331.84;;;12.97;100.00
28354;BME280;15603;50.878;8.036;2022-10-16T04:58:11;146320.91;;;12.92;100.00
28354;BME280;15603;50.878;8.036;2022-10-16T05:00:39;146325.78;;;12.94;100.00
28354;BME280;15603;50.878;8.036;2022-10-16T05:03:06;146316.03;;;12.90;100.00
28354;BME280;15603;50.878;8.036;2022-10-16T05:05:35;146329.44;;;12.96;100.00
28354;BME280;15603;50.878;8.036;2022-10-16T05:08:03;146352.56;;;13.06;100.00
28354;BME280;15603;50.878;8.036;2022-10-16T05:10:30;146358.63;;;13.08;100.00
28354;BME280;15603;50.878;8.036;2022-10-16T05:12:57;146368.38;;;13.12;100.00
28354;BME280;15603;50.878;8.036;2022-10-16T05:15:25;146364.75;;;13.11;100.00
28354;BME280;15603;50.878;8.036;2022-10-16T05:17:53;146363.50;;;13.10;100.00
28354;BME280;15603;50.878;8.036;2022-10-16T05:20:21;146369.63;;;13.13;100.00
28354;BME280;15603;50.878;8.036;2022-10-16T05:22:48;146308.72;;;12.87;100.00
28354;BME280;15603;50.878;8.036;2022-10-16T05:25:15;146356.22;;;13.07;100.00
28354;BME280;15603;50.878;8.036;2022-10-16T05:27:43;146358.63;;;13.08;100.00
28354;BME280;15603;50.878;8.036;2022-10-16T05:30:10;146372.03;;;13.14;100.00
28354;BME280;15603;50.878;8.036;2022-10-16T05:32:38;146311.19;;;12.88;100.00
28354;BME280;15603;50.878;8.036;2022-10-16T05:35:05;146369.63;;;13.13;100.00
28354;BME280;15603;50.878;8.036;2022-10-16T05:37:38;146381.78;;;13.18;100.00
28354;BME280;15603;50.878;8.036;2022-10-16T05:40:05;146379.34;;;13.17;100.00
28354;BME280;15603;50.878;8.036;2022-10-16T05:42:33;146378.16;;;13.16;100.00
28354;BME280;15603;50.878;8.036;2022-10-16T05:45:00;146380.56;;;13.18;100.00
28354;BME280;15603;50.878;8.036;2022-10-16T05:47:27;146389.09;;;13.21;100.00
28354;BME280;15603;50.878;8.036;2022-10-16T05:49:54;146379.34;;;13.17;100.00
28354;BME280;15603;50.878;8.036;2022-10-16T05:52:22;146372.03;;;13.14;100.00
28354;BME280;15603;50.878;8.036;2022-10-16T05:54:49;146373.28;;;13.14;100.00
28354;BME280;15603;50.878;8.036;2022-10-16T05:57:16;146393.97;;;13.23;100.00
28354;BME280;15603;50.878;8.036;2022-10-16T05:59:43;146411.06;;;13.30;100.00
28354;BME280;15603;50.878;8.036;2022-10-16T06:02:12;146409.88;;;13.30;100.00
28354;BME280;15603;50.878;8.036;2022-10-16T06:04:40;146423.22;;;13.35;100.00
28354;BME280;15603;50.878;8.036;2022-10-16T06:07:07;146429.34;;;13.38;100.00
28354;BME280;15603;50.878;8.036;2022-10-16T06:09:34;146434.19;;;13.40;100.00
28354;BME280;15603;50.878;8.036;2022-10-16T06:12:01;146461.00;;;13.51;100.00
28354;BME280;15603;50.878;8.036;2022-10-16T06:14:28;146470.75;;;13.55;100.00
28354;BME280;15603;50.878;8.036;2022-10-16T06:16:55;146490.22;;;13.64;100.00
28354;BME280;15603;50.878;8.036;2022-10-16T06:19:23;146463.41;;;13.52;100.00
28354;BME280;15603;50.878;8.036;2022-10-16T06:21:50;146540.16;;;13.85;100.00
28354;BME280;15603;50.878;8.036;2022-10-16T06:24:17;146541.38;;;13.85;100.00
28354;BME280;15603;50.878;8.036;2022-10-16T06:26:44;146549.91;;;13.89;100.00
28354;BME280;15603;50.878;8.036;2022-10-16T06:29:11;146563.31;;;13.94;100.00
28354;BME280;15603;50.878;8.036;2022-10-16T06:31:38;146585.22;;;14.04;100.00
28354;BME280;15603;50.878;8.036;2022-10-16T06:34:05;146629.13;;;14.22;100.00
28354;BME280;15603;50.878;8.036;2022-10-16T06:36:36;146575.50;;;14.00;100.00
28354;BME280;15603;50.878;8.036;2022-10-16T06:39:03;146636.41;;;14.25;100.00
28354;BME280;15603;50.878;8.036;2022-10-16T06:41:32;146640.06;;;14.27;100.00
28354;BME280;15603;50.878;8.036;2022-10-16T06:44:08;146643.72;;;14.28;100.00
28354;BME280;15603;50.878;8.036;2022-10-16T06:46:35;146660.75;;;14.36;100.00
28354;BME280;15603;50.878;8.036;2022-10-16T06:49:03;146692.44;;;14.49;100.00
28354;BME280;15603;50.878;8.036;2022-10-16T06:51:30;146664.41;;;14.37;100.00
28354;BME280;15603;50.878;8.036;2022-10-16T06:53:58;146692.44;;;14.49;100.00
28354;BME280;15603;50.878;8.036;2022-10-16T06:56:31;146675.41;;;14.42;100.00
28354;BME280;15603;50.878;8.036;2022-10-16T06:58:59;146682.69;;;14.45;100.00
28354;BME280;15603;50.878;8.036;2022-10-16T07:01:27;146683.94;;;14.45;100.00
28354;BME280;15603;50.878;8.036;2022-10-16T07:03:54;146668.09;;;14.39;100.00
28354;BME280;15603;50.878;8.036;2022-10-16T07:06:23;146680.28;;;14.44;100.00
28354;BME280;15603;50.878;8.036;2022-10-16T07:08:51;146668.09;;;14.39;100.00
28354;BME280;15603;50.878;8.036;2022-10-16T07:11:20;146660.75;;;14.36;100.00
28354;BME280;15603;50.878;8.036;2022-10-16T07:13:48;146642.47;;;14.28;100.00
28354;BME280;15603;50.878;8.036;2022-10-16T07:16:24;146668.09;;;14.39;100.00
28354;BME280;15603;50.878;8.036;2022-10-16T07:18:54;146686.38;;;14.46;100.00
28354;BME280;15603;50.878;8.036;2022-10-16T07:21:27;146714.44;;;14.58;100.00
28354;BME280;15603;50.878;8.036;2022-10-16T07:23:58;146741.25;;;14.69;100.00
28354;BME280;15603;50.878;8.036;2022-10-16T07:26:27;146753.47;;;14.75;100.00
28354;BME280;15603;50.878;8.036;2022-10-16T07:28:54;146765.63;;;14.80;100.00
28354;BME280;15603;50.878;8.036;2022-10-16T07:31:22;146720.56;;;14.61;100.00
28354;BME280;15603;50.878;8.036;2022-10-16T07:33:50;146790.03;;;14.90;100.00
28354;BME280;15603;50.878;8.036;2022-10-16T07:36:19;146797.31;;;14.93;100.00
28354;BME280;15603;50.878;8.036;2022-10-16T07:38:47;146777.81;;;14.85;100.00
28354;BME280;15603;50.878;8.036;2022-10-16T07:41:17;146809.53;;;14.98;100.00
28354;BME280;15603;50.878;8.036;2022-10-16T07:43:50;146815.59;;;15.01;100.00
28354;BME280;15603;50.878;8.036;2022-10-16T07:46:19;146802.19;;;14.95;100.00
28354;BME280;15603;50.878;8.036;2022-10-16T07:48:46;146836.34;;;15.09;100.00
28354;BME280;15603;50.878;8.036;2022-10-16T07:51:18;146857.06;;;15.18;100.00
28354;BME280;15603;50.878;8.036;2022-10-16T07:53:45;146885.13;;;15.30;100.00
28354;BME280;15603;50.878;8.036;2022-10-16T07:56:14;146855.84;;;15.18;100.00
28354;BME280;15603;50.878;8.036;2022-10-16T07:58:42;146840.00;;;15.11;100.00
28354;BME280;15603;50.878;8.036;2022-10-16T08:01:11;146875.34;;;15.26;100.00
28354;BME280;15603;50.878;8.036;2022-10-16T08:03:41;146974.13;;;15.67;100.00
28354;BME280;15603;50.878;8.036;2022-10-16T08:06:08;147004.69;;;15.80;100.00
28354;BME280;15603;50.878;8.036;2022-10-16T08:08:35;146958.28;;;15.61;100.00
28354;BME280;15603;50.878;8.036;2022-10-16T08:11:02;146988.81;;;15.74;100.00
28354;BME280;15603;50.878;8.036;2022-10-16T08:13:31;147011.97;;;15.83;100.00
28354;BME280;15603;50.878;8.036;2022-10-16T08:15:58;146980.22;;;15.70;100.00
28354;BME280;15603;50.878;8.036;2022-10-16T08:18:25;146994.94;;;15.76;100.00
28354;BME280;15603;50.878;8.036;2022-10-16T08:20:59;147015.66;;;15.85;100.00
28354;BME280;15603;50.878;8.036;2022-10-16T08:23:28;147051.03;;;16.00;100.00
28354;BME280;15603;50.878;8.036;2022-10-16T08:25:56;147014.44;;;15.84;100.00
28354;BME280;15603;50.878;8.036;2022-10-16T08:28:28;147068.06;;;16.07;100.00
28354;BME280;15603;50.878;8.036;2022-10-16T08:30:55;147108.34;;;16.24;100.00
28354;BME280;15603;50.878;8.036;2022-10-16T08:33:23;147114.47;;;16.26;100.00
28354;BME280;15603;50.878;8.036;2022-10-16T08:35:52;147142.53;;;16.38;100.00
28354;BME280;15603;50.878;8.036;2022-10-16T08:38:20;147109.59;;;16.24;100.00
28354;BME280;15603;50.878;8.036;2022-10-16T08:40:47;147165.72;;;16.48;100.00
28354;BME280;15603;50.878;8.036;2022-10-16T08:43:28;147165.72;;;16.48;100.00
28354;BME280;15603;50.878;8.036;2022-10-16T08:46:37;147160.84;;;16.46;100.00
28354;BME280;15603;50.878;8.036;2022-10-16T08:49:14;147238.94;;;16.79;100.00
28354;BME280;15603;50.878;8.036;2022-10-16T08:51:41;147256.06;;;16.86;100.00
28354;BME280;15603;50.878;8.036;2022-10-16T08:57:20;147309.75;;;17.08;100.00
28354;BME280;15603;50.878;8.036;2022-10-16T08:59:51;147292.69;;;17.01;99.97
28354;BME280;15603;50.878;8.036;2022-10-16T09:02:31;147168.13;;;16.49;100.00
28354;BME280;15603;50.878;8.036;2022-10-16T09:08:03;147163.25;;;16.47;100.00
28354;BME280;15603;50.878;8.036;2022-10-16T09:10:51;147142.53;;;16.38;100.00
28354;BME280;15603;50.878;8.036;2022-10-16T09:16:30;147206.00;;;16.65;99.87
28354;BME280;15603;50.878;8.036;2022-10-16T09:21:45;147251.16;;;16.84;100.00
28354;BME280;15603;50.878;8.036;2022-10-16T09:26:41;147331.72;;;17.18;97.23
28354;BME280;15603;50.878;8.036;2022-10-16T09:29:20;147406.19;;;17.49;98.00
28354;BME280;15603;50.878;8.036;2022-10-16T09:31:48;147384.25;;;17.40;95.89
28354;BME280;15603;50.878;8.036;2022-10-16T09:34:30;147400.09;;;17.46;94.20
28354;BME280;15603;50.878;8.036;2022-10-16T09:37:00;147395.22;;;17.44;96.73
28354;BME280;15603;50.878;8.036;2022-10-16T09:39:29;147380.59;;;17.38;97.07
28354;BME280;15603;50.878;8.036;2022-10-16T09:41:56;147319.50;;;17.13;92.40
28354;BME280;15603;50.878;8.036;2022-10-16T09:44:28;147361.03;;;17.30;93.79
28354;BME280;15603;50.878;8.036;2022-10-16T09:47:04;147335.41;;;17.19;92.74
28354;BME280;15603;50.878;8.036;2022-10-16T09:49:32;147271.94;;;16.93;93.37
28354;BME280;15603;50.878;8.036;2022-10-16T09:52:10;147248.75;;;16.83;93.73
28354;BME280;15603;50.878;8.036;2022-10-16T09:54:49;147212.06;;;16.67;97.51
28354;BME280;15603;50.878;8.036;2022-10-16T09:57:16;147252.41;;;16.84;98.37
28354;BME280;15603;50.878;8.036;2022-10-16T09:59:47;147235.25;;;16.77;94.66
28354;BME280;15603;50.878;8.036;2022-10-16T10:02:17;147212.06;;;16.67;93.59
28354;BME280;15603;50.878;8.036;2022-10-16T10:04:50;147155.97;;;16.44;93.93
28354;BME280;15603;50.878;8.036;2022-10-16T10:07:23;147190.09;;;16.58;90.22
28354;BME280;15603;50.878;8.036;2022-10-16T10:09:51;147313.44;;;17.10;91.87
28354;BME280;15603;50.878;8.036;2022-10-16T10:12:21;147307.34;;;17.07;92.64
28354;BME280;15603;50.878;8.036;2022-10-16T10:14:57;147375.72;;;17.36;90.52
28354;BME280;15603;50.878;8.036;2022-10-16T10:17:26;147356.13;;;17.28;90.65
28354;BME280;15603;50.878;8.036;2022-10-16T10:23:20;147414.75;;;17.53;92.24
28354;BME280;15603;50.878;8.036;2022-10-16T10:26:09;147563.81;;;18.15;91.72
28354;BME280;15603;50.878;8.036;2022-10-16T10:32:02;147654.19;;;18.53;89.04
28354;BME280;15603;50.878;8.036;2022-10-16T10:34:49;147706.75;;;18.75;87.55
28354;BME280;15603;50.878;8.036;2022-10-16T10:37:42;147764.22;;;18.99;84.91
28354;BME280;15603;50.878;8.036;2022-10-16T10:40:36;147873.00;;;19.45;84.65
28354;BME280;15603;50.878;8.036;2022-10-16T10:45:45;147913.38;;;19.62;81.27
28354;BME280;15603;50.878;8.036;2022-10-16T10:51:21;147701.88;;;18.73;80.65
28354;BME280;15603;50.878;8.036;2022-10-16T10:59:57;147835.13;;;19.29;80.08
28354;BME280;15603;50.878;8.036;2022-10-16T11:02:37;147725.13;;;18.83;83.30
28354;BME280;15603;50.878;8.036;2022-10-16T11:07:58;147712.84;;;18.78;83.13
28354;BME280;15603;50.878;8.036;2022-10-16T11:10:31;147788.69;;;19.10;80.52
28354;BME280;15603;50.878;8.036;2022-10-16T11:15:39;147791.09;;;19.11;79.17
28354;BME280;15603;50.878;8.036;2022-10-16T11:18:21;147824.16;;;19.25;79.91
28354;BME280;15603;50.878;8.036;2022-10-16T11:20:54;147698.19;;;18.72;79.39
28354;BME280;15603;50.878;8.036;2022-10-16T11:23:35;147862.03;;;19.40;79.97
28354;BME280;15603;50.878;8.036;2022-10-16T11:26:12;147732.47;;;18.86;80.43
28354;BME280;15603;50.878;8.036;2022-10-16T11:29:01;147810.69;;;19.19;79.36
28354;BME280;15603;50.878;8.036;2022-10-16T11:31:45;147876.69;;;19.47;79.71
28354;BME280;15603;50.878;8.036;2022-10-16T11:34:24;147849.78;;;19.35;78.04
28354;BME280;15603;50.878;8.036;2022-10-16T11:37:09;147837.53;;;19.30;78.16
28354;BME280;15603;50.878;8.036;2022-10-16T11:39:38;147721.44;;;18.81;80.04
28354;BME280;15603;50.878;8.036;2022-10-16T11:42:36;147551.59;;;18.10;82.86
28354;BME280;15603;50.878;8.036;2022-10-16T11:45:18;147678.66;;;18.63;83.01
28354;BME280;15603;50.878;8.036;2022-10-16T11:48:21;147613.91;;;18.36;82.28
28354;BME280;15603;50.878;8.036;2022-10-16T11:50:53;147634.66;;;18.45;81.00
28354;BME280;15603;50.878;8.036;2022-10-16T11:53:43;147678.66;;;18.63;83.92
28354;BME280;15603;50.878;8.036;2022-10-16T11:56:17;147661.53;;;18.56;80.48
28354;BME280;15603;50.878;8.036;2022-10-16T11:58:55;147778.91;;;19.06;79.72
28354;BME280;15603;50.878;8.036;2022-10-16T12:04:31;147788.69;;;19.10;77.54
28354;BME280;15603;50.878;8.036;2022-10-16T12:07:05;147771.56;;;19.02;77.31
28354;BME280;15603;50.878;8.036;2022-10-16T12:09:38;147818.00;;;19.22;77.98
28354;BME280;15603;50.878;8.036;2022-10-16T12:12:23;147857.16;;;19.38;75.16
28354;BME280;15603;50.878;8.036;2022-10-16T12:15:03;147888.94;;;19.52;77.44
28354;BME280;15603;50.878;8.036;2022-10-16T12:17:56;147876.69;;;19.47;74.65
28354;BME280;15603;50.878;8.036;2022-10-16T12:20:29;147957.44;;;19.80;72.22
28354;BME280;15603;50.878;8.036;2022-10-16T12:23:03;147907.28;;;19.59;76.27
28354;BME280;15603;50.878;8.036;2022-10-16T12:25:34;147914.56;;;19.62;74.90
28354;BME280;15603;50.878;8.036;2022-10-16T12:28:16;147813.13;;;19.20;76.55
28354;BME280;15603;50.878;8.036;2022-10-16T12:30:53;147881.56;;;19.49;79.12
28354;BME280;15603;50.878;8.036;2022-10-16T12:33:24;147888.94;;;19.52;78.09
28354;BME280;15603;50.878;8.036;2022-10-16T12:35:53;147869.34;;;19.43;77.51
28354;BME280;15603;50.878;8.036;2022-10-16T12:38:25;147930.50;;;19.69;79.01
28354;BME280;15603;50.878;8.036;2022-10-16T12:40:59;147984.31;;;19.92;78.74
28354;BME280;15603;50.878;8.036;2022-10-16T12:48:41;148011.22;;;20.03;76.25
28354;BME280;15603;50.878;8.036;2022-10-16T12:54:31;147940.31;;;19.73;77.86
28354;BME280;15603;50.878;8.036;2022-10-16T13:08:30;147954.97;;;19.79;78.11
28354;BME280;15603;50.878;8.036;2022-10-16T13:11:17;147978.22;;;19.89;77.83
28354;BME280;15603;50.878;8.036;2022-10-16T13:14:21;147994.13;;;19.96;77.31
28354;BME280;15603;50.878;8.036;2022-10-16T13:17:06;147920.72;;;19.65;75.43
28354;BME280;15603;50.878;8.036;2022-10-16T13:19:53;147940.31;;;19.73;77.55
28354;BME280;15603;50.878;8.036;2022-10-16T13:28:13;147964.75;;;19.84;77.23
28354;BME280;15603;50.878;8.036;2022-10-16T13:30:51;147924.34;;;19.67;77.71
28354;BME280;15603;50.878;8.036;2022-10-16T13:33:36;147968.44;;;19.85;76.16
28354;BME280;15603;50.878;8.036;2022-10-16T13:36:05;148019.78;;;20.07;74.59
28354;BME280;15603;50.878;8.036;2022-10-16T13:38:34;147939.09;;;19.73;76.87
28354;BME280;15603;50.878;8.036;2022-10-16T13:41:04;148002.66;;;19.99;76.37
28354;BME280;15603;50.878;8.036;2022-10-16T13:46:05;148001.44;;;19.99;73.19
28354;BME280;15603;50.878;8.036;2022-10-16T13:48:34;147862.03;;;19.40;75.43
28354;BME280;15603;50.878;8.036;2022-10-16T13:51:05;148054.06;;;20.21;74.33
28354;BME280;15603;50.878;8.036;2022-10-16T13:53:34;147983.09;;;19.91;75.12
28354;BME280;15603;50.878;8.036;2022-10-16T13:56:09;147936.63;;;19.72;76.59
28354;BME280;15603;50.878;8.036;2022-10-16T13:58:37;147895.03;;;19.54;76.21
28354;BME280;15603;50.878;8.036;2022-10-16T14:01:15;147913.38;;;19.62;76.31
28354;BME280;15603;50.878;8.036;2022-10-16T14:03:44;147864.44;;;19.41;76.93
28354;BME280;15603;50.878;8.036;2022-10-16T14:06:16;147841.22;;;19.32;78.10
28354;BME280;15603;50.878;8.036;2022-10-16T14:08:48;147841.22;;;19.32;77.33
28354;BME280;15603;50.878;8.036;2022-10-16T14:11:23;147815.59;;;19.21;77.71
28354;BME280;15603;50.878;8.036;2022-10-16T14:13:51;147813.13;;;19.20;78.66
28354;BME280;15603;50.878;8.036;2022-10-16T14:16:25;147725.13;;;18.83;78.42
28354;BME280;15603;50.878;8.036;2022-10-16T14:19:04;147752.03;;;18.94;80.37
28354;BME280;15603;50.878;8.036;2022-10-16T14:21:34;147737.38;;;18.88;79.66
28354;BME280;15603;50.878;8.036;2022-10-16T14:24:11;147793.56;;;19.12;80.38
28354;BME280;15603;50.878;8.036;2022-10-16T14:26:44;147752.03;;;18.94;79.27
28354;BME280;15603;50.878;8.036;2022-10-16T14:29:20;147874.22;;;19.46;77.29
28354;BME280;15603;50.878;8.036;2022-10-16T14:32:04;147896.25;;;19.55;77.89
28354;BME280;15603;50.878;8.036;2022-10-16T14:34:34;147891.34;;;19.53;77.96